الصفحة الرئيسية
METAR-TAF:

METAR-TAF

مطار :

مطار سيلفيو بيتيروسي الدولي

أسونسيون, باراغواي

دائرة عرض: 25-16S, خط طول: 057-38W, ارتفاع: 101 متر

مراقبة الطقس الحالي

تاريخ ووقت الإصدار 1ساعة و 7 دقيقة قبل الساعة 10:00UTC
ريح 10 عقدة من الشمال/الشمال الشرقي
درجة الحرارة 27°درجة مئوية
الرطوبة 70%
ضغط 1006 hPa
الرؤية 10 كم أو أكثر
الغيوم لا تقل 1500 م ولا وجود لمزنة ركامية السحاب الأسود

METAR: SGAS 141000Z 03010KT CAVOK 27/21 Q1006

زمن: 08:07 (11:07 UTC)

توقعات

تاريخ ووقت الإصدار 8ساعات و 7 دقيقة قبل الساعة 03:00UTC
التوقعات صالحة من14 الساعة 06 UTC إلى 15 الساعة 06 UTC
ريح 9 عقدة من الشمال الشرقي
الرؤية 10 كم أو أكثر
الغيوم لا تقل 1500 م ولا وجود لمزنة ركامية السحاب الأسود
أصبح
من 14 الساعة 12 UTC إلى 14 الساعة 14 UTC
ريح 16 عقدة من الشمال/الشمال الشرقي
أصبح
من 14 الساعة 18 UTC إلى 14 الساعة 21 UTC
الرؤية 10 كم أو أكثر
غيوم متفرقة على ارتفاع 3300 قدم

TAF: SGAS 140300Z 1406/1506 05009KT CAVOK TX38/1419Z TN26/1410Z BECMG 1412/1414 02016KT BECMG 1418/1421 9999 SCT033

أرصاد الطقس والتوقعات من أكثر من 4000 مطار (تقارير الطقس للمطار METAR والتنبؤ بالطقس بالمطارTAF).

المحطات المتاحة هي النقط الصفراء والحمراء على الخريطة.

حرك المؤشر فوق النقطة لمعرفة اسم المحطة.

ثم انقر لمعرفة أرصاد وتوقعات الطقس.

لتغيير الخارطة: اضغط على الأزرار الخضراء مع رمز الصليب الأسود للتكبير. على الزر الأخضر مع شرطة للتصغير، أو على الأسهم الخضراء للخرائط المجاورة.


METAR-TAF: